sensor_id;sensor_type;location;lat;lon;timestamp;temperature;humidity
34644;DHT22;26931;43.498;-1.506;2022-08-03T00:01:57;25.20;92.10
34644;DHT22;26931;43.498;-1.506;2022-08-03T00:04:23;25.20;92.20
34644;DHT22;26931;43.498;-1.506;2022-08-03T00:06:49;25.30;92.20
34644;DHT22;26931;43.498;-1.506;2022-08-03T00:09:15;25.20;92.20
34644;DHT22;26931;43.498;-1.506;2022-08-03T00:11:41;25.20;92.30
34644;DHT22;26931;43.498;-1.506;2022-08-03T00:14:06;25.20;92.40
34644;DHT22;26931;43.498;-1.506;2022-08-03T00:16:32;25.30;92.50
34644;DHT22;26931;43.498;-1.506;2022-08-03T00:18:58;25.20;92.50
34644;DHT22;26931;43.498;-1.506;2022-08-03T00:21:23;25.30;92.60
34644;DHT22;26931;43.498;-1.506;2022-08-03T00:23:49;25.20;92.60
34644;DHT22;26931;43.498;-1.506;2022-08-03T00:26:14;25.20;92.60
34644;DHT22;26931;43.498;-1.506;2022-08-03T00:28:40;25.20;92.60
34644;DHT22;26931;43.498;-1.506;2022-08-03T00:31:06;25.20;92.70
34644;DHT22;26931;43.498;-1.506;2022-08-03T00:33:32;25.20;92.80
34644;DHT22;26931;43.498;-1.506;2022-08-03T00:35:57;25.10;92.80
34644;DHT22;26931;43.498;-1.506;2022-08-03T00:38:23;25.10;92.80
34644;DHT22;26931;43.498;-1.506;2022-08-03T00:40:49;25.10;92.80
34644;DHT22;26931;43.498;-1.506;2022-08-03T00:43:15;25.10;92.90
34644;DHT22;26931;43.498;-1.506;2022-08-03T00:45:41;25.10;92.90
34644;DHT22;26931;43.498;-1.506;2022-08-03T00:48:07;25.10;92.90
34644;DHT22;26931;43.498;-1.506;2022-08-03T00:50:34;25.10;92.90
34644;DHT22;26931;43.498;-1.506;2022-08-03T00:53:00;25.10;92.90
34644;DHT22;26931;43.498;-1.506;2022-08-03T00:55:27;25.10;92.90
34644;DHT22;26931;43.498;-1.506;2022-08-03T00:57:53;25.00;93.00
34644;DHT22;26931;43.498;-1.506;2022-08-03T01:00:20;25.00;93.00
34644;DHT22;26931;43.498;-1.506;2022-08-03T01:02:46;25.00;93.10
34644;DHT22;26931;43.498;-1.506;2022-08-03T01:05:12;25.00;93.20
34644;DHT22;26931;43.498;-1.506;2022-08-03T01:10:20;25.00;93.20
34644;DHT22;26931;43.498;-1.506;2022-08-03T01:15:27;25.00;93.40
34644;DHT22;26931;43.498;-1.506;2022-08-03T01:20:26;24.90;93.40
34644;DHT22;26931;43.498;-1.506;2022-08-03T01:30:58;24.90;93.70
34644;DHT22;26931;43.498;-1.506;2022-08-03T01:33:27;24.90;93.60
34644;DHT22;26931;43.498;-1.506;2022-08-03T01:35:59;24.90;93.70
34644;DHT22;26931;43.498;-1.506;2022-08-03T01:38:28;24.80;93.80
34644;DHT22;26931;43.498;-1.506;2022-08-03T01:40:56;24.80;93.90
34644;DHT22;26931;43.498;-1.506;2022-08-03T01:43:25;24.80;93.90
34644;DHT22;26931;43.498;-1.506;2022-08-03T01:45:55;24.80;93.90
34644;DHT22;26931;43.498;-1.506;2022-08-03T01:48:21;24.80;93.90
34644;DHT22;26931;43.498;-1.506;2022-08-03T01:50:47;24.70;93.90
34644;DHT22;26931;43.498;-1.506;2022-08-03T01:53:13;24.70;93.90
34644;DHT22;26931;43.498;-1.506;2022-08-03T01:55:39;24.70;93.90
34644;DHT22;26931;43.498;-1.506;2022-08-03T01:58:05;24.60;93.90
34644;DHT22;26931;43.498;-1.506;2022-08-03T02:00:35;24.60;93.90
34644;DHT22;26931;43.498;-1.506;2022-08-03T02:03:03;24.60;94.00
34644;DHT22;26931;43.498;-1.506;2022-08-03T02:05:29;24.60;93.90
34644;DHT22;26931;43.498;-1.506;2022-08-03T02:07:56;24.60;93.90
34644;DHT22;26931;43.498;-1.506;2022-08-03T02:10:22;24.60;93.90
34644;DHT22;26931;43.498;-1.506;2022-08-03T02:12:50;24.50;94.00
34644;DHT22;26931;43.498;-1.506;2022-08-03T02:15:16;24.50;93.90
34644;DHT22;26931;43.498;-1.506;2022-08-03T02:17:43;24.60;93.90
34644;DHT22;26931;43.498;-1.506;2022-08-03T02:20:10;24.60;93.90
34644;DHT22;26931;43.498;-1.506;2022-08-03T02:22:40;24.60;93.90
34644;DHT22;26931;43.498;-1.506;2022-08-03T02:25:07;24.60;93.90
34644;DHT22;26931;43.498;-1.506;2022-08-03T02:27:33;24.70;93.90
34644;DHT22;26931;43.498;-1.506;2022-08-03T02:30:09;24.60;93.90
34644;DHT22;26931;43.498;-1.506;2022-08-03T02:32:35;24.60;93.90
34644;DHT22;26931;43.498;-1.506;2022-08-03T02:35:03;24.50;93.90
34644;DHT22;26931;43.498;-1.506;2022-08-03T02:37:41;24.40;94.00
34644;DHT22;26931;43.498;-1.506;2022-08-03T02:40:07;24.50;94.00
34644;DHT22;26931;43.498;-1.506;2022-08-03T02:42:34;24.60;94.00
34644;DHT22;26931;43.498;-1.506;2022-08-03T02:45:01;24.60;94.00
34644;DHT22;26931;43.498;-1.506;2022-08-03T02:47:27;24.50;94.00
34644;DHT22;26931;43.498;-1.506;2022-08-03T02:49:54;24.50;94.00
34644;DHT22;26931;43.498;-1.506;2022-08-03T02:52:22;24.60;94.10
34644;DHT22;26931;43.498;-1.506;2022-08-03T02:54:49;24.60;94.10
34644;DHT22;26931;43.498;-1.506;2022-08-03T02:57:15;24.50;94.10
34644;DHT22;26931;43.498;-1.506;2022-08-03T02:59:41;24.60;94.10
34644;DHT22;26931;43.498;-1.506;2022-08-03T03:02:08;24.50;94.20
34644;DHT22;26931;43.498;-1.506;2022-08-03T03:04:34;24.50;94.20
34644;DHT22;26931;43.498;-1.506;2022-08-03T03:07:00;24.60;94.20
34644;DHT22;26931;43.498;-1.506;2022-08-03T03:09:26;24.50;94.30
34644;DHT22;26931;43.498;-1.506;2022-08-03T03:11:52;24.60;94.20
34644;DHT22;26931;43.498;-1.506;2022-08-03T03:14:18;24.60;94.30
34644;DHT22;26931;43.498;-1.506;2022-08-03T03:16:44;24.60;94.30
34644;DHT22;26931;43.498;-1.506;2022-08-03T03:19:10;24.60;94.40
34644;DHT22;26931;43.498;-1.506;2022-08-03T03:21:36;24.60;94.40
34644;DHT22;26931;43.498;-1.506;2022-08-03T03:24:02;24.60;94.40
34644;DHT22;26931;43.498;-1.506;2022-08-03T03:26:28;24.70;94.40
34644;DHT22;26931;43.498;-1.506;2022-08-03T03:28:53;24.70;94.40
34644;DHT22;26931;43.498;-1.506;2022-08-03T03:31:20;24.70;94.40
34644;DHT22;26931;43.498;-1.506;2022-08-03T03:33:46;24.70;94.40
34644;DHT22;26931;43.498;-1.506;2022-08-03T03:36:12;24.80;94.40
34644;DHT22;26931;43.498;-1.506;2022-08-03T03:38:38;24.70;94.40
34644;DHT22;26931;43.498;-1.506;2022-08-03T03:41:03;24.70;94.40
34644;DHT22;26931;43.498;-1.506;2022-08-03T03:43:29;24.80;94.40
34644;DHT22;26931;43.498;-1.506;2022-08-03T03:45:55;24.80;94.40
34644;DHT22;26931;43.498;-1.506;2022-08-03T03:48:21;24.70;94.40
34644;DHT22;26931;43.498;-1.506;2022-08-03T03:50:48;24.80;94.40
34644;DHT22;26931;43.498;-1.506;2022-08-03T03:53:14;24.80;94.30
34644;DHT22;26931;43.498;-1.506;2022-08-03T03:55:40;24.70;94.30
34644;DHT22;26931;43.498;-1.506;2022-08-03T03:58:06;24.90;94.40
34644;DHT22;26931;43.498;-1.506;2022-08-03T04:00:32;24.80;94.30
34644;DHT22;26931;43.498;-1.506;2022-08-03T04:02:57;24.80;94.30
34644;DHT22;26931;43.498;-1.506;2022-08-03T04:05:23;24.80;94.30
34644;DHT22;26931;43.498;-1.506;2022-08-03T04:08:11;24.70;94.30
34644;DHT22;26931;43.498;-1.506;2022-08-03T04:11:01;24.80;94.30
34644;DHT22;26931;43.498;-1.506;2022-08-03T04:13:32;24.80;94.30
34644;DHT22;26931;43.498;-1.506;2022-08-03T04:15:58;24.80;94.30
34644;DHT22;26931;43.498;-1.506;2022-08-03T04:18:24;24.80;94.20
34644;DHT22;26931;43.498;-1.506;2022-08-03T04:20:50;24.70;94.20
34644;DHT22;26931;43.498;-1.506;2022-08-03T04:23:16;24.80;94.20
34644;DHT22;26931;43.498;-1.506;2022-08-03T04:25:44;24.80;94.10
34644;DHT22;26931;43.498;-1.506;2022-08-03T04:28:10;24.80;94.10
34644;DHT22;26931;43.498;-1.506;2022-08-03T04:30:36;24.80;94.10
34644;DHT22;26931;43.498;-1.506;2022-08-03T04:33:03;24.80;94.00
34644;DHT22;26931;43.498;-1.506;2022-08-03T04:35:31;24.70;94.00
34644;DHT22;26931;43.498;-1.506;2022-08-03T04:37:59;24.70;94.00
34644;DHT22;26931;43.498;-1.506;2022-08-03T04:40:32;24.80;94.00
34644;DHT22;26931;43.498;-1.506;2022-08-03T04:42:58;24.70;94.00
34644;DHT22;26931;43.498;-1.506;2022-08-03T04:45:26;24.80;94.00
34644;DHT22;26931;43.498;-1.506;2022-08-03T04:47:52;24.80;93.90
34644;DHT22;26931;43.498;-1.506;2022-08-03T04:50:18;24.70;93.90
34644;DHT22;26931;43.498;-1.506;2022-08-03T04:52:44;24.70;93.80
34644;DHT22;26931;43.498;-1.506;2022-08-03T04:55:10;24.70;93.80
34644;DHT22;26931;43.498;-1.506;2022-08-03T04:57:36;24.70;93.80
34644;DHT22;26931;43.498;-1.506;2022-08-03T05:00:02;24.70;93.80
34644;DHT22;26931;43.498;-1.506;2022-08-03T05:02:28;24.70;93.90
34644;DHT22;26931;43.498;-1.506;2022-08-03T05:04:55;24.60;93.90
34644;DHT22;26931;43.498;-1.506;2022-08-03T05:07:21;24.60;93.90
34644;DHT22;26931;43.498;-1.506;2022-08-03T05:09:46;24.60;93.90
34644;DHT22;26931;43.498;-1.506;2022-08-03T05:12:12;24.60;93.90
34644;DHT22;26931;43.498;-1.506;2022-08-03T05:14:38;24.60;93.90
34644;DHT22;26931;43.498;-1.506;2022-08-03T05:17:03;24.60;93.90
34644;DHT22;26931;43.498;-1.506;2022-08-03T05:19:29;24.60;93.90
34644;DHT22;26931;43.498;-1.506;2022-08-03T05:21:55;24.70;93.80
34644;DHT22;26931;43.498;-1.506;2022-08-03T05:24:20;24.60;93.80
34644;DHT22;26931;43.498;-1.506;2022-08-03T05:26:46;24.60;93.70
34644;DHT22;26931;43.498;-1.506;2022-08-03T05:29:11;24.60;93.70
34644;DHT22;26931;43.498;-1.506;2022-08-03T05:31:37;24.70;93.70
34644;DHT22;26931;43.498;-1.506;2022-08-03T05:34:03;24.70;93.70
34644;DHT22;26931;43.498;-1.506;2022-08-03T05:36:29;24.80;93.60
34644;DHT22;26931;43.498;-1.506;2022-08-03T05:38:55;24.70;93.50
34644;DHT22;26931;43.498;-1.506;2022-08-03T05:41:20;24.70;93.50
34644;DHT22;26931;43.498;-1.506;2022-08-03T05:43:46;24.80;93.40
34644;DHT22;26931;43.498;-1.506;2022-08-03T05:46:12;24.80;93.30
34644;DHT22;26931;43.498;-1.506;2022-08-03T05:48:38;24.90;93.30
34644;DHT22;26931;43.498;-1.506;2022-08-03T05:51:04;25.00;93.20
34644;DHT22;26931;43.498;-1.506;2022-08-03T05:53:32;25.10;93.20
34644;DHT22;26931;43.498;-1.506;2022-08-03T05:55:58;25.10;93.10
34644;DHT22;26931;43.498;-1.506;2022-08-03T05:58:23;25.20;93.00
34644;DHT22;26931;43.498;-1.506;2022-08-03T06:00:49;25.20;92.90
34644;DHT22;26931;43.498;-1.506;2022-08-03T06:03:15;25.10;92.80
34644;DHT22;26931;43.498;-1.506;2022-08-03T06:05:40;25.30;92.70
34644;DHT22;26931;43.498;-1.506;2022-08-03T06:08:06;25.40;92.60
34644;DHT22;26931;43.498;-1.506;2022-08-03T06:10:32;25.40;92.50
34644;DHT22;26931;43.498;-1.506;2022-08-03T06:12:58;25.40;92.40
34644;DHT22;26931;43.498;-1.506;2022-08-03T06:15:24;25.40;92.40
34644;DHT22;26931;43.498;-1.506;2022-08-03T06:17:50;25.60;92.40
34644;DHT22;26931;43.498;-1.506;2022-08-03T06:20:17;25.40;92.30
34644;DHT22;26931;43.498;-1.506;2022-08-03T06:22:44;25.50;92.20
34644;DHT22;26931;43.498;-1.506;2022-08-03T06:25:10;25.50;92.10
34644;DHT22;26931;43.498;-1.506;2022-08-03T06:27:35;25.60;92.10
34644;DHT22;26931;43.498;-1.506;2022-08-03T06:30:07;25.60;91.90
34644;DHT22;26931;43.498;-1.506;2022-08-03T06:32:35;25.90;91.80
34644;DHT22;26931;43.498;-1.506;2022-08-03T06:35:01;25.80;91.90
34644;DHT22;26931;43.498;-1.506;2022-08-03T06:37:26;25.80;91.50
34644;DHT22;26931;43.498;-1.506;2022-08-03T06:39:53;25.90;91.40
34644;DHT22;26931;43.498;-1.506;2022-08-03T06:42:18;25.90;91.60
34644;DHT22;26931;43.498;-1.506;2022-08-03T06:44:44;26.10;91.10
34644;DHT22;26931;43.498;-1.506;2022-08-03T06:47:09;26.20;90.90
34644;DHT22;26931;43.498;-1.506;2022-08-03T06:49:35;26.20;90.80
34644;DHT22;26931;43.498;-1.506;2022-08-03T06:52:01;26.30;90.60
34644;DHT22;26931;43.498;-1.506;2022-08-03T06:54:27;26.30;90.60
34644;DHT22;26931;43.498;-1.506;2022-08-03T06:56:52;26.30;90.60
34644;DHT22;26931;43.498;-1.506;2022-08-03T06:59:18;26.30;90.60
34644;DHT22;26931;43.498;-1.506;2022-08-03T07:01:44;26.30;90.60
34644;DHT22;26931;43.498;-1.506;2022-08-03T07:04:09;26.30;90.50
34644;DHT22;26931;43.498;-1.506;2022-08-03T07:06:36;26.20;90.40
34644;DHT22;26931;43.498;-1.506;2022-08-03T07:09:01;26.20;90.40
34644;DHT22;26931;43.498;-1.506;2022-08-03T07:11:27;26.20;90.40
34644;DHT22;26931;43.498;-1.506;2022-08-03T07:13:53;26.20;90.30
34644;DHT22;26931;43.498;-1.506;2022-08-03T07:16:18;26.30;90.20
34644;DHT22;26931;43.498;-1.506;2022-08-03T07:18:44;26.40;90.20
34644;DHT22;26931;43.498;-1.506;2022-08-03T07:21:10;26.40;90.10
34644;DHT22;26931;43.498;-1.506;2022-08-03T07:23:37;26.50;90.00
34644;DHT22;26931;43.498;-1.506;2022-08-03T07:26:02;26.50;89.80
34644;DHT22;26931;43.498;-1.506;2022-08-03T07:28:28;26.60;89.80
34644;DHT22;26931;43.498;-1.506;2022-08-03T07:30:54;26.50;89.80
34644;DHT22;26931;43.498;-1.506;2022-08-03T07:33:19;26.50;89.80
34644;DHT22;26931;43.498;-1.506;2022-08-03T07:35:45;26.40;89.70
34644;DHT22;26931;43.498;-1.506;2022-08-03T07:38:11;26.40;89.80
34644;DHT22;26931;43.498;-1.506;2022-08-03T07:40:36;26.30;89.80
34644;DHT22;26931;43.498;-1.506;2022-08-03T07:43:02;26.30;89.80
34644;DHT22;26931;43.498;-1.506;2022-08-03T07:45:29;26.20;89.80
34644;DHT22;26931;43.498;-1.506;2022-08-03T07:47:55;26.20;89.90
34644;DHT22;26931;43.498;-1.506;2022-08-03T07:50:21;26.20;89.80
34644;DHT22;26931;43.498;-1.506;2022-08-03T07:52:47;26.20;89.60
34644;DHT22;26931;43.498;-1.506;2022-08-03T07:55:12;26.20;89.50
34644;DHT22;26931;43.498;-1.506;2022-08-03T07:57:38;26.20;89.40
34644;DHT22;26931;43.498;-1.506;2022-08-03T08:00:05;26.10;89.20
34644;DHT22;26931;43.498;-1.506;2022-08-03T08:02:31;26.10;89.20
34644;DHT22;26931;43.498;-1.506;2022-08-03T08:04:57;26.20;89.10
34644;DHT22;26931;43.498;-1.506;2022-08-03T08:07:22;26.20;89.00
34644;DHT22;26931;43.498;-1.506;2022-08-03T08:09:49;26.20;88.90
34644;DHT22;26931;43.498;-1.506;2022-08-03T08:12:15;26.20;88.80
34644;DHT22;26931;43.498;-1.506;2022-08-03T08:14:40;26.20;88.80
34644;DHT22;26931;43.498;-1.506;2022-08-03T08:17:06;26.10;88.80
34644;DHT22;26931;43.498;-1.506;2022-08-03T08:19:32;26.20;88.70
34644;DHT22;26931;43.498;-1.506;2022-08-03T08:21:57;26.10;88.40
34644;DHT22;26931;43.498;-1.506;2022-08-03T08:24:23;26.40;88.20
34644;DHT22;26931;43.498;-1.506;2022-08-03T08:26:49;26.70;87.60
34644;DHT22;26931;43.498;-1.506;2022-08-03T08:29:15;27.00;87.00
34644;DHT22;26931;43.498;-1.506;2022-08-03T08:31:40;27.30;86.20
34644;DHT22;26931;43.498;-1.506;2022-08-03T08:34:07;27.50;85.60
34644;DHT22;26931;43.498;-1.506;2022-08-03T08:36:33;27.70;85.00
34644;DHT22;26931;43.498;-1.506;2022-08-03T08:38:59;27.90;84.50
34644;DHT22;26931;43.498;-1.506;2022-08-03T08:41:25;28.10;83.80
34644;DHT22;26931;43.498;-1.506;2022-08-03T08:43:52;28.40;83.10
34644;DHT22;26931;43.498;-1.506;2022-08-03T08:46:18;28.60;82.40
34644;DHT22;26931;43.498;-1.506;2022-08-03T08:48:44;28.50;82.40
34644;DHT22;26931;43.498;-1.506;2022-08-03T08:51:11;28.50;82.70
34644;DHT22;26931;43.498;-1.506;2022-08-03T08:53:38;28.40;82.70
34644;DHT22;26931;43.498;-1.506;2022-08-03T08:56:05;28.30;82.60
34644;DHT22;26931;43.498;-1.506;2022-08-03T08:58:39;28.30;82.60
34644;DHT22;26931;43.498;-1.506;2022-08-03T09:01:06;28.20;82.40
34644;DHT22;26931;43.498;-1.506;2022-08-03T09:03:32;28.40;82.20
34644;DHT22;26931;43.498;-1.506;2022-08-03T09:05:59;28.40;81.90
34644;DHT22;26931;43.498;-1.506;2022-08-03T09:08:25;28.50;81.70
34644;DHT22;26931;43.498;-1.506;2022-08-03T09:10:51;28.50;81.40
34644;DHT22;26931;43.498;-1.506;2022-08-03T09:13:16;28.50;81.30
34644;DHT22;26931;43.498;-1.506;2022-08-03T09:15:42;28.50;81.10
34644;DHT22;26931;43.498;-1.506;2022-08-03T09:18:08;28.60;80.90
34644;DHT22;26931;43.498;-1.506;2022-08-03T09:20:34;28.70;80.60
34644;DHT22;26931;43.498;-1.506;2022-08-03T09:23:03;28.80;80.30
34644;DHT22;26931;43.498;-1.506;2022-08-03T09:28:05;28.70;79.90
34644;DHT22;26931;43.498;-1.506;2022-08-03T09:30:31;28.90;79.90
34644;DHT22;26931;43.498;-1.506;2022-08-03T09:33:07;28.80;79.60
34644;DHT22;26931;43.498;-1.506;2022-08-03T09:35:43;28.80;79.40
34644;DHT22;26931;43.498;-1.506;2022-08-03T09:38:16;28.80;79.30
34644;DHT22;26931;43.498;-1.506;2022-08-03T09:40:43;28.80;79.20
34644;DHT22;26931;43.498;-1.506;2022-08-03T09:43:09;28.70;79.20
34644;DHT22;26931;43.498;-1.506;2022-08-03T09:45:36;28.70;79.20
34644;DHT22;26931;43.498;-1.506;2022-08-03T09:50:54;28.60;79.10
34644;DHT22;26931;43.498;-1.506;2022-08-03T09:53:20;28.70;79.00
34644;DHT22;26931;43.498;-1.506;2022-08-03T09:56:04;28.60;79.00
34644;DHT22;26931;43.498;-1.506;2022-08-03T09:58:30;28.70;79.00
34644;DHT22;26931;43.498;-1.506;2022-08-03T10:01:00;28.80;78.90
34644;DHT22;26931;43.498;-1.506;2022-08-03T10:03:27;28.70;78.80
34644;DHT22;26931;43.498;-1.506;2022-08-03T10:05:53;28.70;78.80
34644;DHT22;26931;43.498;-1.506;2022-08-03T10:08:20;28.60;78.80
34644;DHT22;26931;43.498;-1.506;2022-08-03T10:10:47;28.60;78.90
34644;DHT22;26931;43.498;-1.506;2022-08-03T10:13:13;28.50;78.90
34644;DHT22;26931;43.498;-1.506;2022-08-03T10:15:40;28.50;78.90
34644;DHT22;26931;43.498;-1.506;2022-08-03T10:18:06;28.50;78.90
34644;DHT22;26931;43.498;-1.506;2022-08-03T10:20:32;28.60;79.00
34644;DHT22;26931;43.498;-1.506;2022-08-03T10:23:00;28.60;78.90
34644;DHT22;26931;43.498;-1.506;2022-08-03T10:25:28;28.60;78.80
34644;DHT22;26931;43.498;-1.506;2022-08-03T10:27:54;28.60;78.80
34644;DHT22;26931;43.498;-1.506;2022-08-03T10:30:21;28.50;78.70
34644;DHT22;26931;43.498;-1.506;2022-08-03T10:32:51;28.60;78.70
34644;DHT22;26931;43.498;-1.506;2022-08-03T10:35:22;28.60;78.80
34644;DHT22;26931;43.498;-1.506;2022-08-03T10:38:02;28.60;78.80
34644;DHT22;26931;43.498;-1.506;2022-08-03T10:40:36;28.70;78.80
34644;DHT22;26931;43.498;-1.506;2022-08-03T10:43:08;28.70;78.70
34644;DHT22;26931;43.498;-1.506;2022-08-03T10:45:38;28.70;78.70
34644;DHT22;26931;43.498;-1.506;2022-08-03T10:48:08;28.70;78.70
34644;DHT22;26931;43.498;-1.506;2022-08-03T10:50:34;28.80;78.80
34644;DHT22;26931;43.498;-1.506;2022-08-03T10:53:02;28.70;78.80
34644;DHT22;26931;43.498;-1.506;2022-08-03T10:55:31;28.70;78.80
34644;DHT22;26931;43.498;-1.506;2022-08-03T11:01:00;28.70;78.70
34644;DHT22;26931;43.498;-1.506;2022-08-03T11:03:26;28.90;78.80
34644;DHT22;26931;43.498;-1.506;2022-08-03T11:05:52;28.80;78.60
34644;DHT22;26931;43.498;-1.506;2022-08-03T11:08:21;28.80;78.60
34644;DHT22;26931;43.498;-1.506;2022-08-03T11:10:47;28.80;78.70
34644;DHT22;26931;43.498;-1.506;2022-08-03T11:13:14;28.80;78.80
34644;DHT22;26931;43.498;-1.506;2022-08-03T11:15:40;28.80;78.70
34644;DHT22;26931;43.498;-1.506;2022-08-03T11:18:08;28.80;78.80
34644;DHT22;26931;43.498;-1.506;2022-08-03T11:20:44;28.80;78.90
34644;DHT22;26931;43.498;-1.506;2022-08-03T11:23:11;28.80;78.90
34644;DHT22;26931;43.498;-1.506;2022-08-03T11:28:25;28.70;79.00
34644;DHT22;26931;43.498;-1.506;2022-08-03T11:30:54;28.70;79.00
34644;DHT22;26931;43.498;-1.506;2022-08-03T11:33:29;28.90;79.30
34644;DHT22;26931;43.498;-1.506;2022-08-03T11:35:59;28.70;79.20
34644;DHT22;26931;43.498;-1.506;2022-08-03T11:38:25;28.80;79.40
34644;DHT22;26931;43.498;-1.506;2022-08-03T11:40:52;28.60;79.30
34644;DHT22;26931;43.498;-1.506;2022-08-03T11:48:27;28.50;79.60
34644;DHT22;26931;43.498;-1.506;2022-08-03T11:50:53;28.50;79.60
34644;DHT22;26931;43.498;-1.506;2022-08-03T11:53:19;28.50;79.60
34644;DHT22;26931;43.498;-1.506;2022-08-03T11:55:45;28.40;79.70
34644;DHT22;26931;43.498;-1.506;2022-08-03T11:58:17;28.40;79.80
34644;DHT22;26931;43.498;-1.506;2022-08-03T12:00:43;28.40;79.80
34644;DHT22;26931;43.498;-1.506;2022-08-03T12:03:10;28.40;79.90
34644;DHT22;26931;43.498;-1.506;2022-08-03T12:05:49;28.40;80.00
34644;DHT22;26931;43.498;-1.506;2022-08-03T12:08:17;28.40;80.00
34644;DHT22;26931;43.498;-1.506;2022-08-03T12:10:47;28.40;80.00
34644;DHT22;26931;43.498;-1.506;2022-08-03T12:13:13;28.40;80.00
34644;DHT22;26931;43.498;-1.506;2022-08-03T12:15:43;28.40;80.10
34644;DHT22;26931;43.498;-1.506;2022-08-03T12:18:15;28.30;80.20
34644;DHT22;26931;43.498;-1.506;2022-08-03T12:20:41;28.20;80.10
34644;DHT22;26931;43.498;-1.506;2022-08-03T12:23:07;28.20;80.30
34644;DHT22;26931;43.498;-1.506;2022-08-03T12:25:34;28.20;80.40
34644;DHT22;26931;43.498;-1.506;2022-08-03T12:28:08;28.10;80.50
34644;DHT22;26931;43.498;-1.506;2022-08-03T12:30:37;28.10;80.60
34644;DHT22;26931;43.498;-1.506;2022-08-03T12:33:13;28.10;80.60
34644;DHT22;26931;43.498;-1.506;2022-08-03T12:35:39;28.20;80.90
34644;DHT22;26931;43.498;-1.506;2022-08-03T12:38:05;28.00;80.80
34644;DHT22;26931;43.498;-1.506;2022-08-03T12:40:31;27.90;80.80
34644;DHT22;26931;43.498;-1.506;2022-08-03T12:42:57;28.00;81.00
34644;DHT22;26931;43.498;-1.506;2022-08-03T12:45:24;28.10;81.10
34644;DHT22;26931;43.498;-1.506;2022-08-03T12:47:54;27.90;81.20
34644;DHT22;26931;43.498;-1.506;2022-08-03T12:50:24;27.80;81.30
34644;DHT22;26931;43.498;-1.506;2022-08-03T12:52:50;27.90;81.50
34644;DHT22;26931;43.498;-1.506;2022-08-03T12:55:20;27.90;81.50
34644;DHT22;26931;43.498;-1.506;2022-08-03T12:57:46;27.80;81.70
34644;DHT22;26931;43.498;-1.506;2022-08-03T13:00:15;27.70;81.80
34644;DHT22;26931;43.498;-1.506;2022-08-03T13:02:41;27.80;82.10
34644;DHT22;26931;43.498;-1.506;2022-08-03T13:05:14;27.80;82.20
34644;DHT22;26931;43.498;-1.506;2022-08-03T13:07:40;27.70;82.30
34644;DHT22;26931;43.498;-1.506;2022-08-03T13:10:07;27.70;82.50
34644;DHT22;26931;43.498;-1.506;2022-08-03T13:12:32;27.70;82.50
34644;DHT22;26931;43.498;-1.506;2022-08-03T13:15:09;27.70;82.70
34644;DHT22;26931;43.498;-1.506;2022-08-03T13:17:35;27.60;82.80
34644;DHT22;26931;43.498;-1.506;2022-08-03T13:20:01;27.70;83.00
34644;DHT22;26931;43.498;-1.506;2022-08-03T13:22:27;27.70;83.20
34644;DHT22;26931;43.498;-1.506;2022-08-03T13:24:54;27.60;83.40
34644;DHT22;26931;43.498;-1.506;2022-08-03T13:27:23;27.60;83.50
34644;DHT22;26931;43.498;-1.506;2022-08-03T13:29:49;27.60;83.60
34644;DHT22;26931;43.498;-1.506;2022-08-03T13:32:15;27.60;83.80
34644;DHT22;26931;43.498;-1.506;2022-08-03T13:34:40;27.60;83.90
34644;DHT22;26931;43.498;-1.506;2022-08-03T13:37:06;27.60;84.10
34644;DHT22;26931;43.498;-1.506;2022-08-03T13:39:32;27.60;84.20
34644;DHT22;26931;43.498;-1.506;2022-08-03T13:41:57;27.60;84.30
34644;DHT22;26931;43.498;-1.506;2022-08-03T13:44:23;27.70;84.30
34644;DHT22;26931;43.498;-1.506;2022-08-03T13:46:49;27.80;84.70
34644;DHT22;26931;43.498;-1.506;2022-08-03T13:49:14;27.60;84.80
34644;DHT22;26931;43.498;-1.506;2022-08-03T13:51:40;27.70;85.00
34644;DHT22;26931;43.498;-1.506;2022-08-03T13:54:06;27.60;85.20
34644;DHT22;26931;43.498;-1.506;2022-08-03T13:56:32;27.70;85.30
34644;DHT22;26931;43.498;-1.506;2022-08-03T13:58:58;27.60;85.40
34644;DHT22;26931;43.498;-1.506;2022-08-03T14:01:24;27.60;85.60
34644;DHT22;26931;43.498;-1.506;2022-08-03T14:03:50;27.60;85.50
34644;DHT22;26931;43.498;-1.506;2022-08-03T14:06:21;27.60;85.50
34644;DHT22;26931;43.498;-1.506;2022-08-03T14:08:47;27.60;85.70
34644;DHT22;26931;43.498;-1.506;2022-08-03T14:11:13;27.60;85.60
34644;DHT22;26931;43.498;-1.506;2022-08-03T14:13:39;27.60;85.70
34644;DHT22;26931;43.498;-1.506;2022-08-03T14:16:05;27.50;85.50
34644;DHT22;26931;43.498;-1.506;2022-08-03T14:18:31;27.50;85.60
34644;DHT22;26931;43.498;-1.506;2022-08-03T14:20:57;27.50;85.40
34644;DHT22;26931;43.498;-1.506;2022-08-03T14:23:23;27.50;85.10
34644;DHT22;26931;43.498;-1.506;2022-08-03T14:25:50;27.50;84.70
34644;DHT22;26931;43.498;-1.506;2022-08-03T14:28:16;27.50;84.70
34644;DHT22;26931;43.498;-1.506;2022-08-03T14:30:42;27.50;84.50
34644;DHT22;26931;43.498;-1.506;2022-08-03T14:33:08;27.60;84.40
34644;DHT22;26931;43.498;-1.506;2022-08-03T14:35:34;27.50;84.10
34644;DHT22;26931;43.498;-1.506;2022-08-03T14:38:00;27.60;84.00
34644;DHT22;26931;43.498;-1.506;2022-08-03T14:40:26;27.60;83.90
34644;DHT22;26931;43.498;-1.506;2022-08-03T14:42:52;27.60;83.90
34644;DHT22;26931;43.498;-1.506;2022-08-03T14:45:17;27.50;83.90
34644;DHT22;26931;43.498;-1.506;2022-08-03T14:47:43;27.70;84.10
34644;DHT22;26931;43.498;-1.506;2022-08-03T14:50:09;27.60;84.00
34644;DHT22;26931;43.498;-1.506;2022-08-03T14:52:35;27.60;84.00
34644;DHT22;26931;43.498;-1.506;2022-08-03T14:55:01;27.60;84.00
34644;DHT22;26931;43.498;-1.506;2022-08-03T14:57:27;27.50;84.10
34644;DHT22;26931;43.498;-1.506;2022-08-03T14:59:52;27.50;84.40
34644;DHT22;26931;43.498;-1.506;2022-08-03T15:02:18;27.50;84.70
34644;DHT22;26931;43.498;-1.506;2022-08-03T15:04:44;27.50;84.90
34644;DHT22;26931;43.498;-1.506;2022-08-03T15:07:10;27.50;84.90
34644;DHT22;26931;43.498;-1.506;2022-08-03T15:09:36;27.50;85.00
34644;DHT22;26931;43.498;-1.506;2022-08-03T15:12:05;27.50;85.20
34644;DHT22;26931;43.498;-1.506;2022-08-03T15:14:31;27.40;85.20
34644;DHT22;26931;43.498;-1.506;2022-08-03T15:16:57;27.50;85.40
34644;DHT22;26931;43.498;-1.506;2022-08-03T15:19:23;27.40;85.40
34644;DHT22;26931;43.498;-1.506;2022-08-03T15:21:49;27.50;85.50
34644;DHT22;26931;43.498;-1.506;2022-08-03T15:24:14;27.50;85.40
34644;DHT22;26931;43.498;-1.506;2022-08-03T15:26:40;27.50;85.40
34644;DHT22;26931;43.498;-1.506;2022-08-03T15:29:06;27.50;85.40
34644;DHT22;26931;43.498;-1.506;2022-08-03T15:31:32;27.50;85.40
34644;DHT22;26931;43.498;-1.506;2022-08-03T15:33:58;27.60;85.30
34644;DHT22;26931;43.498;-1.506;2022-08-03T15:36:24;27.60;85.30
34644;DHT22;26931;43.498;-1.506;2022-08-03T15:38:50;27.60;85.20
34644;DHT22;26931;43.498;-1.506;2022-08-03T15:41:16;27.60;85.20
34644;DHT22;26931;43.498;-1.506;2022-08-03T15:43:42;27.60;85.20
34644;DHT22;26931;43.498;-1.506;2022-08-03T15:46:11;27.70;85.40